sensor_id;sensor_type;location;lat;lon;timestamp;P1;durP1;ratioP1;P2;durP2;ratioP2
14847;SDS011;7516;43.570;1.448;2023-05-16T00:02:24;7.20;;;2.90;;
14847;SDS011;7516;43.570;1.448;2023-05-16T00:04:52;5.10;;;2.60;;
14847;SDS011;7516;43.570;1.448;2023-05-16T00:07:20;5.83;;;2.70;;
14847;SDS011;7516;43.570;1.448;2023-05-16T00:09:47;4.23;;;2.60;;
14847;SDS011;7516;43.570;1.448;2023-05-16T00:12:14;6.37;;;2.90;;
14847;SDS011;7516;43.570;1.448;2023-05-16T00:14:45;4.77;;;2.43;;
14847;SDS011;7516;43.570;1.448;2023-05-16T00:17:12;3.23;;;2.07;;
14847;SDS011;7516;43.570;1.448;2023-05-16T00:19:41;5.40;;;2.50;;
14847;SDS011;7516;43.570;1.448;2023-05-16T00:22:12;5.20;;;2.50;;
14847;SDS011;7516;43.570;1.448;2023-05-16T00:24:40;4.83;;;3.03;;
14847;SDS011;7516;43.570;1.448;2023-05-16T00:27:07;4.77;;;2.30;;
14847;SDS011;7516;43.570;1.448;2023-05-16T00:29:34;6.33;;;2.60;;
14847;SDS011;7516;43.570;1.448;2023-05-16T00:32:03;4.57;;;2.40;;
14847;SDS011;7516;43.570;1.448;2023-05-16T00:34:32;8.17;;;2.70;;
14847;SDS011;7516;43.570;1.448;2023-05-16T00:36:59;6.23;;;2.70;;
14847;SDS011;7516;43.570;1.448;2023-05-16T00:39:27;4.27;;;2.40;;
14847;SDS011;7516;43.570;1.448;2023-05-16T00:41:54;5.23;;;2.70;;
14847;SDS011;7516;43.570;1.448;2023-05-16T00:44:22;6.83;;;3.00;;
14847;SDS011;7516;43.570;1.448;2023-05-16T00:46:49;5.60;;;2.73;;
14847;SDS011;7516;43.570;1.448;2023-05-16T00:49:18;7.83;;;2.77;;
14847;SDS011;7516;43.570;1.448;2023-05-16T00:51:45;7.00;;;3.03;;
14847;SDS011;7516;43.570;1.448;2023-05-16T00:54:12;7.30;;;2.90;;
14847;SDS011;7516;43.570;1.448;2023-05-16T00:56:40;5.63;;;2.73;;
14847;SDS011;7516;43.570;1.448;2023-05-16T00:59:07;5.40;;;2.83;;
14847;SDS011;7516;43.570;1.448;2023-05-16T01:01:35;7.17;;;2.73;;
14847;SDS011;7516;43.570;1.448;2023-05-16T01:04:03;5.90;;;3.00;;
14847;SDS011;7516;43.570;1.448;2023-05-16T01:06:31;4.77;;;2.60;;
14847;SDS011;7516;43.570;1.448;2023-05-16T01:08:59;5.60;;;2.53;;
14847;SDS011;7516;43.570;1.448;2023-05-16T01:11:27;4.53;;;2.80;;
14847;SDS011;7516;43.570;1.448;2023-05-16T01:13:59;5.60;;;2.90;;
14847;SDS011;7516;43.570;1.448;2023-05-16T01:16:29;5.40;;;2.93;;
14847;SDS011;7516;43.570;1.448;2023-05-16T01:19:06;6.13;;;2.97;;
14847;SDS011;7516;43.570;1.448;2023-05-16T01:21:41;5.80;;;2.87;;
14847;SDS011;7516;43.570;1.448;2023-05-16T01:24:12;5.73;;;2.87;;
14847;SDS011;7516;43.570;1.448;2023-05-16T01:26:42;6.97;;;2.80;;
14847;SDS011;7516;43.570;1.448;2023-05-16T01:29:10;5.13;;;2.77;;
14847;SDS011;7516;43.570;1.448;2023-05-16T01:31:37;6.30;;;2.60;;
14847;SDS011;7516;43.570;1.448;2023-05-16T01:34:04;5.73;;;2.60;;
14847;SDS011;7516;43.570;1.448;2023-05-16T01:36:32;6.10;;;2.73;;
14847;SDS011;7516;43.570;1.448;2023-05-16T01:39:04;3.60;;;2.57;;
14847;SDS011;7516;43.570;1.448;2023-05-16T01:41:38;3.30;;;2.57;;
14847;SDS011;7516;43.570;1.448;2023-05-16T01:44:10;4.60;;;2.77;;
14847;SDS011;7516;43.570;1.448;2023-05-16T01:46:37;5.20;;;2.60;;
14847;SDS011;7516;43.570;1.448;2023-05-16T01:49:09;5.30;;;2.77;;
14847;SDS011;7516;43.570;1.448;2023-05-16T01:51:41;4.33;;;2.67;;
14847;SDS011;7516;43.570;1.448;2023-05-16T01:54:10;7.03;;;3.10;;
14847;SDS011;7516;43.570;1.448;2023-05-16T01:56:38;7.00;;;3.20;;
14847;SDS011;7516;43.570;1.448;2023-05-16T01:59:06;4.40;;;2.87;;
14847;SDS011;7516;43.570;1.448;2023-05-16T02:01:36;6.10;;;3.20;;
14847;SDS011;7516;43.570;1.448;2023-05-16T02:04:03;4.93;;;2.77;;
14847;SDS011;7516;43.570;1.448;2023-05-16T02:06:30;6.13;;;2.73;;
14847;SDS011;7516;43.570;1.448;2023-05-16T02:08:57;5.60;;;3.10;;
14847;SDS011;7516;43.570;1.448;2023-05-16T02:11:25;6.60;;;3.03;;
14847;SDS011;7516;43.570;1.448;2023-05-16T02:13:52;4.90;;;2.70;;
14847;SDS011;7516;43.570;1.448;2023-05-16T02:16:19;3.47;;;2.57;;
14847;SDS011;7516;43.570;1.448;2023-05-16T02:18:48;4.33;;;2.80;;
14847;SDS011;7516;43.570;1.448;2023-05-16T02:21:15;4.13;;;3.00;;
14847;SDS011;7516;43.570;1.448;2023-05-16T02:23:42;5.07;;;2.73;;
14847;SDS011;7516;43.570;1.448;2023-05-16T02:26:09;5.43;;;2.70;;
14847;SDS011;7516;43.570;1.448;2023-05-16T02:28:37;4.13;;;2.63;;
14847;SDS011;7516;43.570;1.448;2023-05-16T02:31:05;4.37;;;2.70;;
14847;SDS011;7516;43.570;1.448;2023-05-16T02:33:32;8.07;;;2.97;;
14847;SDS011;7516;43.570;1.448;2023-05-16T02:36:01;5.33;;;2.60;;
14847;SDS011;7516;43.570;1.448;2023-05-16T02:38:28;4.70;;;2.73;;
14847;SDS011;7516;43.570;1.448;2023-05-16T02:40:55;4.13;;;2.90;;
14847;SDS011;7516;43.570;1.448;2023-05-16T02:43:23;4.17;;;2.80;;
14847;SDS011;7516;43.570;1.448;2023-05-16T02:45:50;4.63;;;3.00;;
14847;SDS011;7516;43.570;1.448;2023-05-16T02:48:17;4.30;;;2.80;;
14847;SDS011;7516;43.570;1.448;2023-05-16T02:50:44;4.00;;;2.83;;
14847;SDS011;7516;43.570;1.448;2023-05-16T02:53:13;4.87;;;2.53;;
14847;SDS011;7516;43.570;1.448;2023-05-16T02:55:40;3.83;;;2.60;;
14847;SDS011;7516;43.570;1.448;2023-05-16T02:58:07;6.50;;;2.70;;
14847;SDS011;7516;43.570;1.448;2023-05-16T03:00:34;4.73;;;2.77;;
14847;SDS011;7516;43.570;1.448;2023-05-16T03:03:02;3.57;;;2.60;;
14847;SDS011;7516;43.570;1.448;2023-05-16T03:05:29;3.90;;;2.70;;
14847;SDS011;7516;43.570;1.448;2023-05-16T03:07:57;5.20;;;2.90;;
14847;SDS011;7516;43.570;1.448;2023-05-16T03:10:25;7.33;;;3.17;;
14847;SDS011;7516;43.570;1.448;2023-05-16T03:12:52;5.03;;;2.80;;
14847;SDS011;7516;43.570;1.448;2023-05-16T03:15:20;6.73;;;2.70;;
14847;SDS011;7516;43.570;1.448;2023-05-16T03:17:47;4.20;;;2.47;;
14847;SDS011;7516;43.570;1.448;2023-05-16T03:20:14;4.53;;;2.67;;
14847;SDS011;7516;43.570;1.448;2023-05-16T03:22:42;4.37;;;2.87;;
14847;SDS011;7516;43.570;1.448;2023-05-16T03:25:09;6.37;;;2.90;;
14847;SDS011;7516;43.570;1.448;2023-05-16T03:27:38;3.40;;;2.30;;
14847;SDS011;7516;43.570;1.448;2023-05-16T03:30:05;4.10;;;2.30;;
14847;SDS011;7516;43.570;1.448;2023-05-16T03:32:33;5.07;;;2.87;;
14847;SDS011;7516;43.570;1.448;2023-05-16T03:35:00;2.87;;;2.50;;
14847;SDS011;7516;43.570;1.448;2023-05-16T03:37:27;3.77;;;2.43;;
14847;SDS011;7516;43.570;1.448;2023-05-16T03:39:55;4.07;;;2.43;;
14847;SDS011;7516;43.570;1.448;2023-05-16T03:42:24;4.43;;;2.60;;
14847;SDS011;7516;43.570;1.448;2023-05-16T03:44:53;3.60;;;2.50;;
14847;SDS011;7516;43.570;1.448;2023-05-16T03:47:20;3.23;;;2.70;;
14847;SDS011;7516;43.570;1.448;2023-05-16T03:49:47;3.07;;;2.40;;
14847;SDS011;7516;43.570;1.448;2023-05-16T03:52:14;3.50;;;2.47;;
14847;SDS011;7516;43.570;1.448;2023-05-16T03:54:41;4.00;;;2.63;;
14847;SDS011;7516;43.570;1.448;2023-05-16T03:57:09;3.73;;;2.70;;
14847;SDS011;7516;43.570;1.448;2023-05-16T03:59:36;3.37;;;2.60;;
14847;SDS011;7516;43.570;1.448;2023-05-16T04:02:05;3.20;;;2.53;;
14847;SDS011;7516;43.570;1.448;2023-05-16T04:04:32;3.17;;;2.20;;
14847;SDS011;7516;43.570;1.448;2023-05-16T04:07:00;3.13;;;2.30;;
14847;SDS011;7516;43.570;1.448;2023-05-16T04:09:27;4.70;;;2.30;;
14847;SDS011;7516;43.570;1.448;2023-05-16T04:11:54;2.40;;;2.13;;
14847;SDS011;7516;43.570;1.448;2023-05-16T04:14:23;2.40;;;2.20;;
14847;SDS011;7516;43.570;1.448;2023-05-16T04:16:50;2.73;;;2.10;;
14847;SDS011;7516;43.570;1.448;2023-05-16T04:19:19;5.33;;;2.80;;
14847;SDS011;7516;43.570;1.448;2023-05-16T04:21:46;3.97;;;2.13;;
14847;SDS011;7516;43.570;1.448;2023-05-16T04:24:13;2.53;;;2.20;;
14847;SDS011;7516;43.570;1.448;2023-05-16T04:26:40;3.67;;;2.30;;
14847;SDS011;7516;43.570;1.448;2023-05-16T04:29:08;4.37;;;2.60;;
14847;SDS011;7516;43.570;1.448;2023-05-16T04:31:35;2.83;;;2.27;;
14847;SDS011;7516;43.570;1.448;2023-05-16T04:34:03;3.27;;;2.20;;
14847;SDS011;7516;43.570;1.448;2023-05-16T04:36:31;2.43;;;2.10;;
14847;SDS011;7516;43.570;1.448;2023-05-16T04:38:59;3.53;;;2.40;;
14847;SDS011;7516;43.570;1.448;2023-05-16T04:41:27;4.77;;;2.30;;
14847;SDS011;7516;43.570;1.448;2023-05-16T04:43:55;2.90;;;2.40;;
14847;SDS011;7516;43.570;1.448;2023-05-16T04:46:22;5.33;;;2.57;;
14847;SDS011;7516;43.570;1.448;2023-05-16T04:48:50;2.90;;;1.90;;
14847;SDS011;7516;43.570;1.448;2023-05-16T04:51:17;2.30;;;2.10;;
14847;SDS011;7516;43.570;1.448;2023-05-16T04:53:47;4.30;;;2.23;;
14847;SDS011;7516;43.570;1.448;2023-05-16T04:56:14;2.77;;;2.30;;
14847;SDS011;7516;43.570;1.448;2023-05-16T04:58:42;2.97;;;2.13;;
14847;SDS011;7516;43.570;1.448;2023-05-16T05:01:09;3.10;;;2.20;;
14847;SDS011;7516;43.570;1.448;2023-05-16T05:03:36;4.27;;;2.30;;
14847;SDS011;7516;43.570;1.448;2023-05-16T05:06:04;2.30;;;2.10;;
14847;SDS011;7516;43.570;1.448;2023-05-16T05:08:31;3.27;;;2.30;;
14847;SDS011;7516;43.570;1.448;2023-05-16T05:11:00;5.53;;;2.30;;
14847;SDS011;7516;43.570;1.448;2023-05-16T05:13:27;2.97;;;2.00;;
14847;SDS011;7516;43.570;1.448;2023-05-16T05:15:54;3.77;;;2.43;;
14847;SDS011;7516;43.570;1.448;2023-05-16T05:18:21;2.27;;;2.07;;
14847;SDS011;7516;43.570;1.448;2023-05-16T05:20:49;2.80;;;2.20;;
14847;SDS011;7516;43.570;1.448;2023-05-16T05:23:17;2.40;;;2.20;;
14847;SDS011;7516;43.570;1.448;2023-05-16T05:25:44;2.80;;;2.47;;
14847;SDS011;7516;43.570;1.448;2023-05-16T05:28:13;3.50;;;2.63;;
14847;SDS011;7516;43.570;1.448;2023-05-16T05:30:40;3.60;;;2.03;;
14847;SDS011;7516;43.570;1.448;2023-05-16T05:33:09;2.73;;;2.30;;
14847;SDS011;7516;43.570;1.448;2023-05-16T05:35:36;3.27;;;2.27;;
14847;SDS011;7516;43.570;1.448;2023-05-16T05:38:04;3.70;;;2.03;;
14847;SDS011;7516;43.570;1.448;2023-05-16T05:40:31;3.13;;;2.40;;
14847;SDS011;7516;43.570;1.448;2023-05-16T05:42:58;2.30;;;2.10;;
14847;SDS011;7516;43.570;1.448;2023-05-16T05:45:27;2.83;;;2.53;;
14847;SDS011;7516;43.570;1.448;2023-05-16T05:47:54;3.20;;;2.70;;
14847;SDS011;7516;43.570;1.448;2023-05-16T05:50:21;3.50;;;2.27;;
14847;SDS011;7516;43.570;1.448;2023-05-16T05:52:49;3.20;;;2.40;;
14847;SDS011;7516;43.570;1.448;2023-05-16T05:55:16;3.17;;;2.50;;
14847;SDS011;7516;43.570;1.448;2023-05-16T05:57:43;3.17;;;2.50;;
14847;SDS011;7516;43.570;1.448;2023-05-16T06:00:11;2.47;;;2.23;;
14847;SDS011;7516;43.570;1.448;2023-05-16T06:02:40;2.50;;;2.30;;
14847;SDS011;7516;43.570;1.448;2023-05-16T06:05:07;3.07;;;2.10;;
14847;SDS011;7516;43.570;1.448;2023-05-16T06:07:35;2.20;;;2.00;;
14847;SDS011;7516;43.570;1.448;2023-05-16T06:10:02;4.03;;;2.33;;
14847;SDS011;7516;43.570;1.448;2023-05-16T06:12:30;2.33;;;2.13;;
14847;SDS011;7516;43.570;1.448;2023-05-16T06:14:57;4.50;;;2.13;;
14847;SDS011;7516;43.570;1.448;2023-05-16T06:17:25;3.37;;;2.33;;
14847;SDS011;7516;43.570;1.448;2023-05-16T06:19:53;4.73;;;2.30;;
14847;SDS011;7516;43.570;1.448;2023-05-16T06:22:20;2.80;;;2.40;;
14847;SDS011;7516;43.570;1.448;2023-05-16T06:24:48;2.77;;;2.37;;
14847;SDS011;7516;43.570;1.448;2023-05-16T06:27:15;3.00;;;2.70;;
14847;SDS011;7516;43.570;1.448;2023-05-16T06:29:42;2.10;;;1.90;;
14847;SDS011;7516;43.570;1.448;2023-05-16T06:32:09;3.27;;;2.30;;
14847;SDS011;7516;43.570;1.448;2023-05-16T06:34:37;3.97;;;2.40;;
14847;SDS011;7516;43.570;1.448;2023-05-16T06:37:05;2.93;;;2.50;;
14847;SDS011;7516;43.570;1.448;2023-05-16T06:39:33;2.83;;;2.37;;
14847;SDS011;7516;43.570;1.448;2023-05-16T06:42:00;4.73;;;2.40;;
14847;SDS011;7516;43.570;1.448;2023-05-16T06:44:27;3.30;;;2.37;;
14847;SDS011;7516;43.570;1.448;2023-05-16T06:46:55;4.13;;;2.40;;
14847;SDS011;7516;43.570;1.448;2023-05-16T06:49:22;4.80;;;2.33;;
14847;SDS011;7516;43.570;1.448;2023-05-16T06:51:50;2.67;;;2.13;;
14847;SDS011;7516;43.570;1.448;2023-05-16T06:54:18;3.50;;;2.60;;
14847;SDS011;7516;43.570;1.448;2023-05-16T06:56:45;2.63;;;2.30;;
14847;SDS011;7516;43.570;1.448;2023-05-16T06:59:13;3.13;;;2.50;;
14847;SDS011;7516;43.570;1.448;2023-05-16T07:01:40;4.03;;;2.60;;
14847;SDS011;7516;43.570;1.448;2023-05-16T07:04:07;2.97;;;2.20;;
14847;SDS011;7516;43.570;1.448;2023-05-16T07:06:34;3.10;;;2.80;;
14847;SDS011;7516;43.570;1.448;2023-05-16T07:09:02;4.83;;;2.37;;
14847;SDS011;7516;43.570;1.448;2023-05-16T07:11:30;3.20;;;2.53;;
14847;SDS011;7516;43.570;1.448;2023-05-16T07:13:57;2.50;;;2.30;;
14847;SDS011;7516;43.570;1.448;2023-05-16T07:16:25;3.00;;;2.53;;
14847;SDS011;7516;43.570;1.448;2023-05-16T07:18:52;2.80;;;2.50;;
14847;SDS011;7516;43.570;1.448;2023-05-16T07:21:20;2.97;;;2.20;;
14847;SDS011;7516;43.570;1.448;2023-05-16T07:23:47;2.30;;;2.10;;
14847;SDS011;7516;43.570;1.448;2023-05-16T07:26:14;2.60;;;2.40;;
14847;SDS011;7516;43.570;1.448;2023-05-16T07:28:43;4.77;;;2.53;;
14847;SDS011;7516;43.570;1.448;2023-05-16T07:31:10;2.83;;;2.60;;
14847;SDS011;7516;43.570;1.448;2023-05-16T07:33:38;3.63;;;2.63;;
14847;SDS011;7516;43.570;1.448;2023-05-16T07:36:05;3.67;;;2.30;;
14847;SDS011;7516;43.570;1.448;2023-05-16T07:38:33;5.60;;;2.70;;
14847;SDS011;7516;43.570;1.448;2023-05-16T07:41:00;3.20;;;2.43;;
14847;SDS011;7516;43.570;1.448;2023-05-16T07:43:27;4.00;;;2.70;;
14847;SDS011;7516;43.570;1.448;2023-05-16T07:45:56;4.17;;;2.43;;
14847;SDS011;7516;43.570;1.448;2023-05-16T07:48:23;3.03;;;2.73;;
14847;SDS011;7516;43.570;1.448;2023-05-16T07:50:51;3.63;;;2.50;;
14847;SDS011;7516;43.570;1.448;2023-05-16T07:53:19;3.37;;;2.67;;
14847;SDS011;7516;43.570;1.448;2023-05-16T07:55:46;3.60;;;2.33;;
14847;SDS011;7516;43.570;1.448;2023-05-16T07:58:14;2.97;;;2.40;;
14847;SDS011;7516;43.570;1.448;2023-05-16T08:00:41;2.73;;;2.50;;
14847;SDS011;7516;43.570;1.448;2023-05-16T08:03:09;3.27;;;2.27;;
14847;SDS011;7516;43.570;1.448;2023-05-16T08:05:37;3.33;;;2.37;;
14847;SDS011;7516;43.570;1.448;2023-05-16T08:08:04;2.87;;;2.60;;
14847;SDS011;7516;43.570;1.448;2023-05-16T08:10:31;4.00;;;2.57;;
14847;SDS011;7516;43.570;1.448;2023-05-16T08:12:59;4.07;;;2.80;;
14847;SDS011;7516;43.570;1.448;2023-05-16T08:15:26;2.70;;;2.17;;
14847;SDS011;7516;43.570;1.448;2023-05-16T08:17:55;3.00;;;2.73;;
14847;SDS011;7516;43.570;1.448;2023-05-16T08:20:24;4.37;;;2.53;;
14847;SDS011;7516;43.570;1.448;2023-05-16T08:22:53;4.00;;;2.73;;
14847;SDS011;7516;43.570;1.448;2023-05-16T08:25:20;2.33;;;2.13;;
14847;SDS011;7516;43.570;1.448;2023-05-16T08:27:48;3.10;;;2.60;;
14847;SDS011;7516;43.570;1.448;2023-05-16T08:30:15;2.93;;;2.60;;
14847;SDS011;7516;43.570;1.448;2023-05-16T08:32:43;4.20;;;2.47;;
14847;SDS011;7516;43.570;1.448;2023-05-16T08:35:10;3.93;;;2.60;;
14847;SDS011;7516;43.570;1.448;2023-05-16T08:37:39;2.57;;;2.37;;
14847;SDS011;7516;43.570;1.448;2023-05-16T08:40:07;2.87;;;2.57;;
14847;SDS011;7516;43.570;1.448;2023-05-16T08:42:35;3.40;;;2.60;;
14847;SDS011;7516;43.570;1.448;2023-05-16T08:45:03;4.83;;;2.30;;
14847;SDS011;7516;43.570;1.448;2023-05-16T08:47:31;2.70;;;2.10;;
14847;SDS011;7516;43.570;1.448;2023-05-16T08:50:01;3.70;;;2.60;;
14847;SDS011;7516;43.570;1.448;2023-05-16T08:52:29;3.83;;;2.60;;
14847;SDS011;7516;43.570;1.448;2023-05-16T08:55:01;5.10;;;2.40;;
14847;SDS011;7516;43.570;1.448;2023-05-16T08:57:29;6.40;;;2.70;;
14847;SDS011;7516;43.570;1.448;2023-05-16T08:59:58;6.13;;;2.30;;
14847;SDS011;7516;43.570;1.448;2023-05-16T09:02:26;2.07;;;1.83;;
14847;SDS011;7516;43.570;1.448;2023-05-16T09:04:53;2.37;;;1.93;;
14847;SDS011;7516;43.570;1.448;2023-05-16T09:07:21;2.17;;;1.97;;
14847;SDS011;7516;43.570;1.448;2023-05-16T09:09:49;2.87;;;2.17;;
14847;SDS011;7516;43.570;1.448;2023-05-16T09:12:18;2.20;;;2.00;;
14847;SDS011;7516;43.570;1.448;2023-05-16T09:14:46;3.77;;;2.20;;
14847;SDS011;7516;43.570;1.448;2023-05-16T09:17:13;3.33;;;1.90;;
14847;SDS011;7516;43.570;1.448;2023-05-16T09:19:41;2.40;;;2.07;;
14847;SDS011;7516;43.570;1.448;2023-05-16T09:22:08;2.87;;;2.10;;
14847;SDS011;7516;43.570;1.448;2023-05-16T09:24:37;3.13;;;2.07;;
14847;SDS011;7516;43.570;1.448;2023-05-16T09:27:08;4.00;;;1.90;;
14847;SDS011;7516;43.570;1.448;2023-05-16T09:29:37;1.97;;;1.80;;
14847;SDS011;7516;43.570;1.448;2023-05-16T09:32:09;2.13;;;1.80;;
14847;SDS011;7516;43.570;1.448;2023-05-16T09:34:37;2.60;;;1.90;;
14847;SDS011;7516;43.570;1.448;2023-05-16T09:37:06;2.90;;;2.13;;
14847;SDS011;7516;43.570;1.448;2023-05-16T09:39:35;2.57;;;2.07;;
14847;SDS011;7516;43.570;1.448;2023-05-16T09:42:03;2.00;;;1.70;;
14847;SDS011;7516;43.570;1.448;2023-05-16T09:44:30;2.63;;;1.80;;
14847;SDS011;7516;43.570;1.448;2023-05-16T09:46:59;2.30;;;1.80;;
14847;SDS011;7516;43.570;1.448;2023-05-16T09:49:26;5.03;;;1.97;;
14847;SDS011;7516;43.570;1.448;2023-05-16T09:51:54;2.53;;;1.80;;
14847;SDS011;7516;43.570;1.448;2023-05-16T09:54:28;2.27;;;1.87;;
14847;SDS011;7516;43.570;1.448;2023-05-16T09:56:57;3.33;;;1.80;;
14847;SDS011;7516;43.570;1.448;2023-05-16T09:59:24;2.70;;;1.63;;
14847;SDS011;7516;43.570;1.448;2023-05-16T10:01:52;3.43;;;1.67;;
14847;SDS011;7516;43.570;1.448;2023-05-16T10:04:20;3.47;;;2.20;;
14847;SDS011;7516;43.570;1.448;2023-05-16T10:06:48;2.13;;;1.67;;
14847;SDS011;7516;43.570;1.448;2023-05-16T10:09:16;2.03;;;1.70;;
14847;SDS011;7516;43.570;1.448;2023-05-16T10:11:44;3.47;;;1.90;;
14847;SDS011;7516;43.570;1.448;2023-05-16T10:14:13;2.17;;;1.60;;
14847;SDS011;7516;43.570;1.448;2023-05-16T10:16:43;2.10;;;1.53;;
14847;SDS011;7516;43.570;1.448;2023-05-16T10:19:12;2.73;;;1.97;;
14847;SDS011;7516;43.570;1.448;2023-05-16T10:21:42;2.20;;;1.80;;
14847;SDS011;7516;43.570;1.448;2023-05-16T10:24:12;2.13;;;1.90;;
14847;SDS011;7516;43.570;1.448;2023-05-16T10:26:39;2.07;;;1.67;;
14847;SDS011;7516;43.570;1.448;2023-05-16T10:29:07;3.63;;;2.00;;
14847;SDS011;7516;43.570;1.448;2023-05-16T10:31:34;2.53;;;1.60;;
14847;SDS011;7516;43.570;1.448;2023-05-16T10:34:02;2.10;;;1.83;;
14847;SDS011;7516;43.570;1.448;2023-05-16T10:36:30;2.40;;;2.00;;
14847;SDS011;7516;43.570;1.448;2023-05-16T10:38:58;2.20;;;1.60;;
14847;SDS011;7516;43.570;1.448;2023-05-16T10:41:26;4.10;;;1.90;;
14847;SDS011;7516;43.570;1.448;2023-05-16T10:43:57;3.23;;;1.70;;
14847;SDS011;7516;43.570;1.448;2023-05-16T10:46:25;2.90;;;2.00;;
14847;SDS011;7516;43.570;1.448;2023-05-16T10:48:54;3.77;;;2.37;;
14847;SDS011;7516;43.570;1.448;2023-05-16T10:51:34;3.53;;;1.83;;
14847;SDS011;7516;43.570;1.448;2023-05-16T10:54:07;2.83;;;1.80;;
14847;SDS011;7516;43.570;1.448;2023-05-16T10:56:34;2.07;;;1.87;;
14847;SDS011;7516;43.570;1.448;2023-05-16T10:59:01;3.07;;;1.87;;
14847;SDS011;7516;43.570;1.448;2023-05-16T11:01:31;2.20;;;1.80;;
14847;SDS011;7516;43.570;1.448;2023-05-16T11:03:59;1.70;;;1.60;;
14847;SDS011;7516;43.570;1.448;2023-05-16T11:06:27;1.90;;;1.70;;
14847;SDS011;7516;43.570;1.448;2023-05-16T11:09:03;4.50;;;1.73;;
14847;SDS011;7516;43.570;1.448;2023-05-16T11:11:41;2.40;;;1.70;;
14847;SDS011;7516;43.570;1.448;2023-05-16T11:14:16;3.57;;;1.60;;
14847;SDS011;7516;43.570;1.448;2023-05-16T11:16:47;2.63;;;1.80;;
14847;SDS011;7516;43.570;1.448;2023-05-16T11:19:18;1.93;;;1.67;;
14847;SDS011;7516;43.570;1.448;2023-05-16T11:22:03;1.97;;;1.50;;
14847;SDS011;7516;43.570;1.448;2023-05-16T11:24:31;3.60;;;1.77;;
14847;SDS011;7516;43.570;1.448;2023-05-16T11:27:00;3.00;;;2.13;;
14847;SDS011;7516;43.570;1.448;2023-05-16T11:29:30;2.77;;;1.60;;
14847;SDS011;7516;43.570;1.448;2023-05-16T11:31:58;2.90;;;1.40;;
14847;SDS011;7516;43.570;1.448;2023-05-16T11:34:25;2.40;;;1.40;;
14847;SDS011;7516;43.570;1.448;2023-05-16T11:36:52;2.43;;;1.73;;
14847;SDS011;7516;43.570;1.448;2023-05-16T11:39:20;2.60;;;1.50;;
14847;SDS011;7516;43.570;1.448;2023-05-16T11:41:49;2.17;;;1.60;;
14847;SDS011;7516;43.570;1.448;2023-05-16T11:44:17;5.40;;;1.40;;
14847;SDS011;7516;43.570;1.448;2023-05-16T11:46:45;1.33;;;1.20;;
14847;SDS011;7516;43.570;1.448;2023-05-16T11:49:12;2.83;;;1.10;;
14847;SDS011;7516;43.570;1.448;2023-05-16T11:51:39;3.07;;;1.30;;
14847;SDS011;7516;43.570;1.448;2023-05-16T11:54:07;1.73;;;1.10;;
14847;SDS011;7516;43.570;1.448;2023-05-16T11:56:35;3.13;;;1.10;;
14847;SDS011;7516;43.570;1.448;2023-05-16T11:59:02;3.97;;;1.13;;
14847;SDS011;7516;43.570;1.448;2023-05-16T12:01:34;4.17;;;1.37;;
14847;SDS011;7516;43.570;1.448;2023-05-16T12:04:06;3.80;;;1.47;;
14847;SDS011;7516;43.570;1.448;2023-05-16T12:06:35;1.87;;;1.20;;
14847;SDS011;7516;43.570;1.448;2023-05-16T12:09:02;2.83;;;1.50;;
14847;SDS011;7516;43.570;1.448;2023-05-16T12:11:34;2.43;;;1.30;;
14847;SDS011;7516;43.570;1.448;2023-05-16T12:14:02;2.10;;;1.30;;
14847;SDS011;7516;43.570;1.448;2023-05-16T12:16:30;2.93;;;1.57;;
14847;SDS011;7516;43.570;1.448;2023-05-16T12:18:59;3.17;;;1.10;;
14847;SDS011;7516;43.570;1.448;2023-05-16T12:21:27;3.13;;;1.00;;
14847;SDS011;7516;43.570;1.448;2023-05-16T12:23:54;1.50;;;1.10;;
14847;SDS011;7516;43.570;1.448;2023-05-16T12:26:25;1.50;;;1.00;;
14847;SDS011;7516;43.570;1.448;2023-05-16T12:28:55;5.00;;;1.37;;
14847;SDS011;7516;43.570;1.448;2023-05-16T12:31:25;2.70;;;1.30;;
14847;SDS011;7516;43.570;1.448;2023-05-16T12:33:52;2.70;;;1.20;;
14847;SDS011;7516;43.570;1.448;2023-05-16T12:36:21;3.63;;;1.37;;
14847;SDS011;7516;43.570;1.448;2023-05-16T12:38:49;5.30;;;1.40;;
14847;SDS011;7516;43.570;1.448;2023-05-16T12:41:17;3.77;;;1.50;;
14847;SDS011;7516;43.570;1.448;2023-05-16T12:43:45;2.33;;;1.37;;
14847;SDS011;7516;43.570;1.448;2023-05-16T12:46:13;4.77;;;1.63;;
14847;SDS011;7516;43.570;1.448;2023-05-16T12:48:40;2.60;;;1.77;;
14847;SDS011;7516;43.570;1.448;2023-05-16T12:51:11;3.77;;;1.80;;
14847;SDS011;7516;43.570;1.448;2023-05-16T12:53:43;3.50;;;1.50;;
14847;SDS011;7516;43.570;1.448;2023-05-16T12:56:11;2.87;;;1.70;;
14847;SDS011;7516;43.570;1.448;2023-05-16T12:58:39;2.10;;;1.40;;
14847;SDS011;7516;43.570;1.448;2023-05-16T13:01:06;3.90;;;1.40;;
14847;SDS011;7516;43.570;1.448;2023-05-16T13:03:34;2.50;;;1.53;;
14847;SDS011;7516;43.570;1.448;2023-05-16T13:06:01;4.50;;;2.07;;
14847;SDS011;7516;43.570;1.448;2023-05-16T13:08:30;2.70;;;1.50;;
14847;SDS011;7516;43.570;1.448;2023-05-16T13:10:59;4.43;;;1.30;;
14847;SDS011;7516;43.570;1.448;2023-05-16T13:13:26;3.67;;;1.40;;
14847;SDS011;7516;43.570;1.448;2023-05-16T13:15:53;2.43;;;1.50;;
14847;SDS011;7516;43.570;1.448;2023-05-16T13:18:20;1.83;;;1.10;;
14847;SDS011;7516;43.570;1.448;2023-05-16T13:20:48;4.13;;;1.70;;
14847;SDS011;7516;43.570;1.448;2023-05-16T13:23:16;3.27;;;1.30;;
14847;SDS011;7516;43.570;1.448;2023-05-16T13:25:44;2.23;;;1.40;;
14847;SDS011;7516;43.570;1.448;2023-05-16T13:28:12;2.67;;;1.37;;
14847;SDS011;7516;43.570;1.448;2023-05-16T13:30:40;2.70;;;1.33;;
14847;SDS011;7516;43.570;1.448;2023-05-16T13:33:07;4.03;;;1.77;;
14847;SDS011;7516;43.570;1.448;2023-05-16T13:35:34;4.50;;;1.57;;
14847;SDS011;7516;43.570;1.448;2023-05-16T13:38:02;2.83;;;1.47;;
14847;SDS011;7516;43.570;1.448;2023-05-16T13:40:29;2.43;;;1.60;;
14847;SDS011;7516;43.570;1.448;2023-05-16T13:42:57;3.33;;;1.73;;
14847;SDS011;7516;43.570;1.448;2023-05-16T13:45:26;3.17;;;1.53;;
14847;SDS011;7516;43.570;1.448;2023-05-16T13:47:53;2.83;;;1.50;;
14847;SDS011;7516;43.570;1.448;2023-05-16T13:50:20;4.90;;;1.50;;
14847;SDS011;7516;43.570;1.448;2023-05-16T13:52:48;2.73;;;1.40;;
14847;SDS011;7516;43.570;1.448;2023-05-16T13:55:16;4.03;;;1.50;;
14847;SDS011;7516;43.570;1.448;2023-05-16T13:57:43;2.50;;;1.40;;
14847;SDS011;7516;43.570;1.448;2023-05-16T14:00:11;4.87;;;1.57;;
14847;SDS011;7516;43.570;1.448;2023-05-16T14:02:40;4.83;;;1.87;;
14847;SDS011;7516;43.570;1.448;2023-05-16T14:05:07;2.80;;;1.40;;
14847;SDS011;7516;43.570;1.448;2023-05-16T14:07:35;3.27;;;1.40;;
14847;SDS011;7516;43.570;1.448;2023-05-16T14:10:02;4.03;;;1.50;;
14847;SDS011;7516;43.570;1.448;2023-05-16T14:12:30;6.83;;;1.70;;
14847;SDS011;7516;43.570;1.448;2023-05-16T14:14:58;4.07;;;1.87;;
14847;SDS011;7516;43.570;1.448;2023-05-16T14:17:25;2.77;;;1.23;;
14847;SDS011;7516;43.570;1.448;2023-05-16T14:19:53;4.90;;;1.33;;
14847;SDS011;7516;43.570;1.448;2023-05-16T14:22:21;3.73;;;1.50;;
14847;SDS011;7516;43.570;1.448;2023-05-16T14:24:48;4.37;;;1.40;;
14847;SDS011;7516;43.570;1.448;2023-05-16T14:27:15;4.87;;;2.00;;
14847;SDS011;7516;43.570;1.448;2023-05-16T14:29:43;5.53;;;1.90;;
14847;SDS011;7516;43.570;1.448;2023-05-16T14:32:11;3.63;;;1.40;;
14847;SDS011;7516;43.570;1.448;2023-05-16T14:34:39;2.97;;;1.37;;
14847;SDS011;7516;43.570;1.448;2023-05-16T14:37:07;4.73;;;1.60;;
14847;SDS011;7516;43.570;1.448;2023-05-16T14:39:35;3.10;;;1.60;;
14847;SDS011;7516;43.570;1.448;2023-05-16T14:42:02;3.90;;;1.70;;
14847;SDS011;7516;43.570;1.448;2023-05-16T14:44:30;3.23;;;1.83;;
14847;SDS011;7516;43.570;1.448;2023-05-16T14:46:57;2.30;;;1.40;;
14847;SDS011;7516;43.570;1.448;2023-05-16T14:49:24;3.97;;;1.80;;
14847;SDS011;7516;43.570;1.448;2023-05-16T14:51:51;2.37;;;1.47;;
14847;SDS011;7516;43.570;1.448;2023-05-16T14:54:20;3.53;;;1.50;;
14847;SDS011;7516;43.570;1.448;2023-05-16T14:56:47;3.53;;;1.43;;
14847;SDS011;7516;43.570;1.448;2023-05-16T14:59:15;3.47;;;2.03;;
14847;SDS011;7516;43.570;1.448;2023-05-16T15:01:42;3.47;;;1.50;;
14847;SDS011;7516;43.570;1.448;2023-05-16T15:04:10;6.33;;;1.40;;
14847;SDS011;7516;43.570;1.448;2023-05-16T15:06:37;3.67;;;1.63;;